Time;durP1;ratioP1;P1;durP2;ratioP2;P2;SDS_P1;SDS_P2;PMS_P1;PMS_P2;Temp;Humidity;BMP_temperature;BMP_pressure;BME280_temperature;BME280_humidity;BME280_pressure;Samples;Min_cycle;Max_cycle;Signal;HPM_P1;HPM_P2
2023/07/29 00:02:05;;;;;;;3.47;1.20;;;;;;;;;;5053407;28;20021;-72
2023/07/29 00:04:30;;;;;;;5.20;1.20;;;;;;;;;;5053355;28;20270;-71
2023/07/29 00:06:56;;;;;;;7.03;1.43;;;;;;;;;;5053233;28;20487;-72
2023/07/29 00:09:21;;;;;;;2.20;1.30;;;;;;;;;;5053128;28;20318;-72
2023/07/29 00:11:46;;;;;;;1.35;1.23;;;;;;;;;;5053411;28;20457;-71
2023/07/29 00:14:11;;;;;;;1.83;1.35;;;;;;;;;;5053491;28;20017;-72
2023/07/29 00:16:37;;;;;;;1.20;1.10;;;;;;;;;;5053176;28;20607;-72
2023/07/29 00:19:03;;;;;;;4.20;1.27;;;;;;;;;;5069040;28;20273;-71
2023/07/29 00:21:28;;;;;;;1.77;1.20;;;;;;;;;;5053225;28;20280;-71
2023/07/29 00:23:53;;;;;;;1.45;1.15;;;;;;;;;;5052460;28;20104;-71
2023/07/29 00:26:19;;;;;;;1.43;1.30;;;;;;;;;;5053342;28;20024;-72
2023/07/29 00:28:44;;;;;;;1.30;1.10;;;;;;;;;;5053330;28;20635;-70
2023/07/29 00:31:10;;;;;;;1.55;1.08;;;;;;;;;;5052739;28;20074;-72
2023/07/29 00:33:35;;;;;;;2.08;1.30;;;;;;;;;;5053048;28;20043;-72
2023/07/29 00:36:02;;;;;;;1.25;1.15;;;;;;;;;;5053238;28;20028;-72
2023/07/29 00:38:30;;;;;;;1.50;1.33;;;;;;;;;;5053240;28;20021;-72
2023/07/29 00:41:00;;;;;;;1.92;1.17;;;;;;;;;;5051597;28;20434;-71
2023/07/29 00:43:25;;;;;;;3.13;1.35;;;;;;;;;;5053148;28;20468;-72
2023/07/29 00:45:51;;;;;;;3.58;1.20;;;;;;;;;;5052817;28;20032;-71
2023/07/29 00:48:16;;;;;;;4.47;1.30;;;;;;;;;;5053130;28;20060;-72
2023/07/29 00:50:42;;;;;;;3.08;1.17;;;;;;;;;;5051407;28;20021;-72
2023/07/29 00:53:07;;;;;;;1.30;1.20;;;;;;;;;;5052748;28;20388;-69
2023/07/29 00:55:32;;;;;;;1.50;1.30;;;;;;;;;;5052732;28;20120;-72
2023/07/29 00:57:58;;;;;;;3.60;1.30;;;;;;;;;;5053022;28;20468;-72
2023/07/29 01:00:24;;;;;;;2.35;1.20;;;;;;;;;;5052557;28;20025;-73
2023/07/29 01:02:50;;;;;;;3.00;1.15;;;;;;;;;;5052624;28;20025;-72
2023/07/29 01:05:17;;;;;;;3.03;1.40;;;;;;;;;;5052624;28;20036;-72
2023/07/29 01:07:52;;;;;;;2.92;1.33;;;;;;;;;;5052569;28;20032;-72
2023/07/29 01:10:29;;;;;;;1.77;1.33;;;;;;;;;;5052494;28;20087;-72
2023/07/29 01:13:13;;;;;;;1.65;1.35;;;;;;;;;;5052587;28;20484;-72
2023/07/29 01:16:07;;;;;;;1.70;1.27;;;;;;;;;;5052548;28;20032;-71
2023/07/29 01:18:36;;;;;;;1.45;1.13;;;;;;;;;;5052061;28;20037;-71
2023/07/29 01:21:08;;;;;;;2.42;1.33;;;;;;;;;;5052301;28;20060;-71
2023/07/29 01:23:35;;;;;;;1.90;1.40;;;;;;;;;;5051207;28;20025;-71
2023/07/29 01:26:01;;;;;;;1.77;1.40;;;;;;;;;;5052521;28;20079;-71
2023/07/29 01:28:27;;;;;;;1.50;1.20;;;;;;;;;;5052387;28;20029;-70
2023/07/29 01:31:01;;;;;;;1.98;1.45;;;;;;;;;;5052312;28;20112;-71
2023/07/29 01:33:26;;;;;;;;;;;;;;;;;;5052844;28;20048;-71
2023/07/29 01:35:58;;;;;;;2.53;1.30;;;;;;;;;;5054802;28;19916;-71
2023/07/29 01:38:34;;;;;;;1.40;1.20;;;;;;;;;;5056093;28;20040;-71
2023/07/29 01:41:01;;;;;;;1.52;1.13;;;;;;;;;;5054896;28;20428;-72
2023/07/29 01:43:28;;;;;;;1.40;1.20;;;;;;;;;;5054760;28;20028;-71
2023/07/29 01:45:54;;;;;;;1.40;1.10;;;;;;;;;;5056167;28;20021;-71
2023/07/29 01:48:19;;;;;;;3.30;1.33;;;;;;;;;;5055965;28;20047;-71
2023/07/29 01:50:44;;;;;;;2.03;1.25;;;;;;;;;;5055758;28;20020;-71
2023/07/29 01:53:10;;;;;;;1.40;1.30;;;;;;;;;;5055813;28;20017;-71
2023/07/29 01:55:35;;;;;;;1.40;1.30;;;;;;;;;;5055777;28;20490;-71
2023/07/29 01:58:00;;;;;;;3.08;1.23;;;;;;;;;;5055775;28;20624;-71
2023/07/29 02:00:25;;;;;;;1.60;1.30;;;;;;;;;;5055793;28;20017;-71
2023/07/29 02:02:51;;;;;;;2.03;1.52;;;;;;;;;;5055573;28;20472;-71
2023/07/29 02:05:16;;;;;;;1.20;1.10;;;;;;;;;;5055835;28;20028;-72
2023/07/29 02:07:41;;;;;;;1.97;1.30;;;;;;;;;;5055533;28;20072;-71
2023/07/29 02:10:07;;;;;;;1.45;1.33;;;;;;;;;;5055552;28;20659;-71
2023/07/29 02:12:32;;;;;;;2.33;1.40;;;;;;;;;;5055403;28;20023;-70
2023/07/29 02:14:58;;;;;;;3.58;1.50;;;;;;;;;;5054170;28;20123;-72
2023/07/29 02:17:23;;;;;;;2.30;1.40;;;;;;;;;;5054016;28;20021;-71
2023/07/29 02:19:48;;;;;;;1.30;1.10;;;;;;;;;;5055265;28;20270;-71
2023/07/29 02:22:17;;;;;;;2.47;1.40;;;;;;;;;;5053924;28;20078;-71
2023/07/29 02:24:42;;;;;;;2.00;1.40;;;;;;;;;;5055179;28;20345;-71
2023/07/29 02:27:08;;;;;;;1.85;1.40;;;;;;;;;;5055436;28;20444;-72
2023/07/29 02:29:33;;;;;;;1.58;1.40;;;;;;;;;;5055167;28;20033;-71
2023/07/29 02:31:59;;;;;;;2.80;1.20;;;;;;;;;;5055185;28;20040;-71
2023/07/29 02:34:24;;;;;;;1.40;1.23;;;;;;;;;;5055275;28;20740;-72
2023/07/29 02:36:49;;;;;;;1.80;1.38;;;;;;;;;;5055275;28;20033;-70
2023/07/29 02:39:15;;;;;;;1.75;1.40;;;;;;;;;;5055091;28;20154;-70
2023/07/29 02:41:40;;;;;;;3.13;1.30;;;;;;;;;;5053561;28;20369;-72
2023/07/29 02:44:05;;;;;;;4.33;1.30;;;;;;;;;;5053659;28;20306;-72
2023/07/29 02:46:31;;;;;;;1.30;1.20;;;;;;;;;;5054266;28;20254;-72
2023/07/29 02:48:56;;;;;;;3.50;1.40;;;;;;;;;;5054595;28;20025;-72
2023/07/29 02:51:21;;;;;;;1.85;1.25;;;;;;;;;;5055054;28;20438;-72
2023/07/29 02:53:47;;;;;;;1.83;1.25;;;;;;;;;;5054595;28;20027;-72
2023/07/29 02:56:12;;;;;;;3.17;1.30;;;;;;;;;;5054707;28;20047;-72
2023/07/29 02:58:37;;;;;;;1.83;1.20;;;;;;;;;;5054655;28;20391;-72
2023/07/29 03:01:05;;;;;;;3.53;2.17;;;;;;;;;;5054495;28;20262;-72
2023/07/29 03:03:31;;;;;;;1.60;1.30;;;;;;;;;;5054754;28;20021;-72
2023/07/29 03:06:04;;;;;;;2.17;1.27;;;;;;;;;;5054501;28;20059;-72
2023/07/29 03:08:30;;;;;;;2.40;1.30;;;;;;;;;;5054417;28;20081;-72
2023/07/29 03:10:56;;;;;;;2.53;1.40;;;;;;;;;;5054262;28;20509;-72
2023/07/29 03:13:21;;;;;;;1.85;1.40;;;;;;;;;;5054583;28;20522;-72
2023/07/29 03:15:46;;;;;;;1.83;1.50;;;;;;;;;;5054518;28;20057;-72
2023/07/29 03:18:12;;;;;;;3.93;1.50;;;;;;;;;;5054501;28;20333;-71
2023/07/29 03:20:37;;;;;;;2.17;1.50;;;;;;;;;;5053949;28;20258;-72
2023/07/29 03:23:02;;;;;;;2.07;1.30;;;;;;;;;;5054107;28;20368;-72
2023/07/29 03:25:28;;;;;;;2.72;1.20;;;;;;;;;;5054082;28;20262;-72
2023/07/29 03:27:54;;;;;;;3.20;1.20;;;;;;;;;;5054534;28;20143;-72
2023/07/29 03:30:21;;;;;;;1.35;1.10;;;;;;;;;;5053980;28;20112;-72
2023/07/29 03:32:46;;;;;;;2.67;1.15;;;;;;;;;;5053897;28;20384;-72
2023/07/29 03:35:11;;;;;;;1.52;1.27;;;;;;;;;;5053808;28;20017;-72
2023/07/29 03:37:37;;;;;;;1.50;1.40;;;;;;;;;;5053824;28;20032;-72
2023/07/29 03:40:02;;;;;;;2.05;1.30;;;;;;;;;;5052425;28;20400;-72
2023/07/29 03:42:28;;;;;;;2.55;1.20;;;;;;;;;;5069158;28;20021;-72
2023/07/29 03:44:53;;;;;;;1.50;1.10;;;;;;;;;;5053790;28;20028;-72
2023/07/29 03:47:19;;;;;;;1.40;1.20;;;;;;;;;;5053659;28;20028;-72
2023/07/29 03:49:44;;;;;;;1.60;1.35;;;;;;;;;;5053534;28;20025;-72
2023/07/29 03:52:10;;;;;;;1.92;1.30;;;;;;;;;;5053616;28;20542;-72
2023/07/29 03:54:35;;;;;;;1.95;1.15;;;;;;;;;;5053511;28;20025;-72
2023/07/29 03:57:00;;;;;;;2.28;1.13;;;;;;;;;;5053529;28;20025;-72
2023/07/29 03:59:25;;;;;;;1.37;1.17;;;;;;;;;;5052533;28;20050;-72
2023/07/29 04:01:50;;;;;;;1.55;1.20;;;;;;;;;;5053289;28;20316;-72
2023/07/29 04:04:16;;;;;;;2.20;1.10;;;;;;;;;;5053622;28;20025;-72
2023/07/29 04:06:41;;;;;;;1.95;1.17;;;;;;;;;;5053558;28;20254;-72
2023/07/29 04:09:07;;;;;;;1.40;1.10;;;;;;;;;;5051963;28;20503;-72
2023/07/29 04:11:33;;;;;;;1.63;1.20;;;;;;;;;;5054072;28;20025;-72
2023/07/29 04:13:58;;;;;;;4.35;1.35;;;;;;;;;;5053433;28;20074;-72
2023/07/29 04:16:23;;;;;;;1.02;1.00;;;;;;;;;;5053284;28;20029;-72
2023/07/29 04:18:49;;;;;;;1.10;1.00;;;;;;;;;;5052876;28;20021;-72
2023/07/29 04:21:14;;;;;;;3.17;1.10;;;;;;;;;;5052971;28;20262;-71
2023/07/29 04:23:40;;;;;;;1.30;1.07;;;;;;;;;;5053083;28;20725;-72
2023/07/29 04:26:05;;;;;;;3.08;1.00;;;;;;;;;;5053274;28;20327;-72
2023/07/29 04:28:30;;;;;;;1.58;1.20;;;;;;;;;;5051811;28;20025;-72
2023/07/29 04:30:56;;;;;;;1.70;1.03;;;;;;;;;;5052947;28;20079;-72
2023/07/29 04:33:21;;;;;;;5.60;1.08;;;;;;;;;;5052990;28;20303;-71
2023/07/29 04:35:46;;;;;;;1.00;0.90;;;;;;;;;;5051604;28;20396;-72
2023/07/29 04:38:11;;;;;;;2.07;1.00;;;;;;;;;;5053192;28;20488;-72
2023/07/29 04:40:36;;;;;;;2.00;1.30;;;;;;;;;;5052879;28;20281;-72
2023/07/29 04:43:02;;;;;;;1.37;0.97;;;;;;;;;;5052744;28;20281;-71
2023/07/29 04:45:29;;;;;;;1.35;1.10;;;;;;;;;;5051472;28;20312;-72
2023/07/29 04:47:54;;;;;;;1.17;1.08;;;;;;;;;;5052794;28;20095;-72
2023/07/29 04:50:19;;;;;;;2.42;1.10;;;;;;;;;;5052943;28;20033;-72
2023/07/29 04:52:45;;;;;;;0.93;0.90;;;;;;;;;;5052714;28;20087;-71
2023/07/29 04:55:10;;;;;;;1.55;1.00;;;;;;;;;;5052737;28;20067;-72
2023/07/29 04:57:35;;;;;;;2.38;1.10;;;;;;;;;;5052804;28;20396;-72
2023/07/29 05:00:02;;;;;;;1.65;1.05;;;;;;;;;;5052885;28;20443;-71
2023/07/29 05:02:27;;;;;;;1.20;1.10;;;;;;;;;;5052506;28;20029;-71
2023/07/29 05:04:53;;;;;;;1.75;1.00;;;;;;;;;;5052617;28;20076;-71
2023/07/29 05:07:18;;;;;;;1.23;0.93;;;;;;;;;;5052583;28;20361;-70
2023/07/29 05:09:44;;;;;;;1.87;1.10;;;;;;;;;;5052888;28;20024;-71
2023/07/29 05:12:09;;;;;;;1.33;0.98;;;;;;;;;;5056790;28;20329;-72
2023/07/29 05:14:34;;;;;;;0.80;0.80;;;;;;;;;;5056821;28;20055;-70
2023/07/29 05:17:00;;;;;;;2.07;0.90;;;;;;;;;;5055193;28;20025;-71
2023/07/29 05:19:26;;;;;;;1.00;0.80;;;;;;;;;;5056283;28;20283;-72
2023/07/29 05:21:51;;;;;;;2.65;1.02;;;;;;;;;;5056520;28;20032;-72
2023/07/29 05:24:16;;;;;;;0.90;0.90;;;;;;;;;;5056581;28;20047;-72
2023/07/29 05:26:41;;;;;;;3.23;0.90;;;;;;;;;;5056266;28;20752;-71
2023/07/29 05:29:07;;;;;;;1.95;0.90;;;;;;;;;;5056649;28;20266;-71
2023/07/29 05:31:32;;;;;;;1.37;1.00;;;;;;;;;;5056200;28;20029;-72
2023/07/29 05:33:59;;;;;;;1.80;0.90;;;;;;;;;;5056208;28;20740;-70
2023/07/29 05:36:24;;;;;;;1.20;1.00;;;;;;;;;;5056119;28;20261;-72
2023/07/29 05:38:49;;;;;;;1.52;0.90;;;;;;;;;;5056115;28;20091;-71
2023/07/29 05:41:15;;;;;;;0.88;0.80;;;;;;;;;;5055875;28;20025;-71
2023/07/29 05:43:42;;;;;;;1.47;0.80;;;;;;;;;;5056038;28;20051;-71
2023/07/29 05:46:07;;;;;;;1.20;1.00;;;;;;;;;;5054641;28;20261;-71
2023/07/29 05:48:33;;;;;;;3.93;0.90;;;;;;;;;;5055880;28;20028;-70
2023/07/29 05:50:59;;;;;;;0.90;0.80;;;;;;;;;;5055850;28;20262;-72
2023/07/29 05:53:24;;;;;;;2.47;1.00;;;;;;;;;;5055704;28;20052;-72
2023/07/29 05:55:49;;;;;;;0.93;0.80;;;;;;;;;;5056034;28;20266;-72
2023/07/29 05:58:14;;;;;;;2.35;0.90;;;;;;;;;;5055998;28;20567;-71
2023/07/29 06:00:40;;;;;;;1.10;0.97;;;;;;;;;;5054359;28;20025;-71
2023/07/29 06:03:05;;;;;;;1.17;0.90;;;;;;;;;;5054285;28;20318;-71
2023/07/29 06:05:30;;;;;;;0.80;0.80;;;;;;;;;;5055584;28;20258;-71
2023/07/29 06:07:55;;;;;;;1.10;1.00;;;;;;;;;;5055504;28;20112;-71
2023/07/29 06:10:22;;;;;;;1.00;0.90;;;;;;;;;;5055389;28;20044;-71
2023/07/29 06:12:47;;;;;;;0.93;0.93;;;;;;;;;;5055433;28;20253;-72
2023/07/29 06:15:13;;;;;;;1.48;0.90;;;;;;;;;;5055663;28;20104;-72
2023/07/29 06:17:39;;;;;;;2.30;1.10;;;;;;;;;;5055337;28;20054;-72
2023/07/29 06:20:05;;;;;;;0.80;0.80;;;;;;;;;;5055362;28;20041;-72
2023/07/29 06:22:31;;;;;;;1.10;0.80;;;;;;;;;;5052925;28;20024;-71
2023/07/29 06:24:56;;;;;;;0.90;0.90;;;;;;;;;;5055251;28;20036;-71
2023/07/29 06:27:21;;;;;;;1.17;1.00;;;;;;;;;;5055164;28;20052;-72
2023/07/29 06:29:46;;;;;;;1.17;0.90;;;;;;;;;;5055082;28;20254;-71
2023/07/29 06:32:11;;;;;;;0.80;0.80;;;;;;;;;;5055057;28;20254;-71
2023/07/29 06:34:37;;;;;;;1.10;1.00;;;;;;;;;;5055021;28;20258;-71
2023/07/29 06:37:02;;;;;;;1.67;1.00;;;;;;;;;;5055253;28;20337;-72
2023/07/29 06:39:27;;;;;;;0.85;0.82;;;;;;;;;;5054908;28;20290;-71
2023/07/29 06:41:52;;;;;;;2.00;0.90;;;;;;;;;;5054798;28;20032;-71
2023/07/29 06:44:18;;;;;;;1.63;1.13;;;;;;;;;;5054682;28;20116;-71
2023/07/29 06:46:43;;;;;;;1.33;0.87;;;;;;;;;;5054733;28;20262;-71
2023/07/29 06:49:08;;;;;;;0.75;0.70;;;;;;;;;;5054676;28;20270;-71
2023/07/29 06:51:35;;;;;;;0.90;0.90;;;;;;;;;;5054666;28;20175;-71
2023/07/29 06:54:01;;;;;;;1.70;0.90;;;;;;;;;;5054683;28;20262;-71
2023/07/29 06:56:26;;;;;;;0.80;0.80;;;;;;;;;;5054574;28;20052;-71
2023/07/29 06:58:52;;;;;;;1.40;0.90;;;;;;;;;;5055117;28;20484;-71
2023/07/29 07:01:17;;;;;;;0.70;0.70;;;;;;;;;;5054346;28;20024;-71
2023/07/29 07:03:42;;;;;;;0.85;0.80;;;;;;;;;;5053115;28;20044;-71
2023/07/29 07:06:08;;;;;;;1.17;0.80;;;;;;;;;;5054618;28;20025;-71
2023/07/29 07:08:33;;;;;;;0.73;0.73;;;;;;;;;;5054299;28;20396;-71
2023/07/29 07:10:58;;;;;;;2.10;0.95;;;;;;;;;;5054395;28;20021;-71
2023/07/29 07:13:24;;;;;;;1.25;0.70;;;;;;;;;;5054579;28;20464;-71
2023/07/29 07:15:49;;;;;;;1.33;0.87;;;;;;;;;;5054224;28;20024;-71
2023/07/29 07:18:14;;;;;;;2.33;0.90;;;;;;;;;;5054392;28;20262;-71
2023/07/29 07:20:40;;;;;;;1.75;0.80;;;;;;;;;;5053895;28;20257;-72
2023/07/29 07:23:05;;;;;;;0.80;0.80;;;;;;;;;;5054008;28;20029;-72
2023/07/29 07:25:31;;;;;;;1.45;1.00;;;;;;;;;;5052730;28;20025;-72
2023/07/29 07:27:56;;;;;;;0.77;0.73;;;;;;;;;;5052740;28;20447;-72
2023/07/29 07:30:21;;;;;;;0.95;0.90;;;;;;;;;;5054005;28;20384;-71
2023/07/29 07:32:47;;;;;;;1.53;0.80;;;;;;;;;;5053742;28;20047;-71
2023/07/29 07:35:12;;;;;;;1.02;0.93;;;;;;;;;;5054161;28;20250;-72
2023/07/29 07:37:38;;;;;;;0.80;0.80;;;;;;;;;;5052620;28;20047;-72
2023/07/29 07:40:03;;;;;;;3.15;0.90;;;;;;;;;;5053707;28;20028;-72
2023/07/29 07:42:29;;;;;;;3.95;0.82;;;;;;;;;;5053691;28;20372;-72
2023/07/29 07:44:54;;;;;;;0.70;0.70;;;;;;;;;;5053683;28;20041;-72
2023/07/29 07:47:19;;;;;;;0.80;0.80;;;;;;;;;;5053568;28;20676;-71
2023/07/29 07:49:44;;;;;;;0.70;0.70;;;;;;;;;;5052278;28;20115;-71
2023/07/29 07:52:10;;;;;;;0.70;0.70;;;;;;;;;;5052297;28;20055;-72
2023/07/29 07:54:35;;;;;;;1.23;0.87;;;;;;;;;;5053577;28;20551;-71
2023/07/29 07:57:00;;;;;;;1.47;0.80;;;;;;;;;;5054012;28;20262;-71
2023/07/29 07:59:25;;;;;;;2.40;0.97;;;;;;;;;;5053354;28;20257;-71
2023/07/29 08:01:52;;;;;;;0.60;0.60;;;;;;;;;;5053455;28;20285;-71
2023/07/29 08:04:17;;;;;;;1.08;0.80;;;;;;;;;;5053387;28;20312;-71
2023/07/29 08:06:42;;;;;;;0.70;0.70;;;;;;;;;;5053621;28;20025;-71
2023/07/29 08:09:08;;;;;;;1.00;0.80;;;;;;;;;;5053190;28;20266;-71
2023/07/29 08:11:33;;;;;;;3.65;0.90;;;;;;;;;;5053192;28;20345;-71
2023/07/29 08:13:58;;;;;;;1.40;1.00;;;;;;;;;;5053195;28;20103;-71
2023/07/29 08:16:24;;;;;;;1.15;0.90;;;;;;;;;;5053361;28;20025;-71
2023/07/29 08:18:49;;;;;;;0.77;0.60;;;;;;;;;;5053232;28;20090;-71
2023/07/29 08:21:14;;;;;;;0.73;0.70;;;;;;;;;;5053230;28;20092;-73
2023/07/29 08:23:39;;;;;;;0.82;0.80;;;;;;;;;;5053004;28;20348;-71
2023/07/29 08:26:05;;;;;;;1.33;0.80;;;;;;;;;;5052977;28;20029;-71
2023/07/29 08:28:35;;;;;;;0.75;0.70;;;;;;;;;;5052987;28;20265;-71
2023/07/29 08:31:01;;;;;;;1.23;0.80;;;;;;;;;;5052832;28;20491;-71
2023/07/29 08:33:27;;;;;;;1.00;0.80;;;;;;;;;;5052955;28;20086;-71
2023/07/29 08:35:52;;;;;;;0.65;0.60;;;;;;;;;;5053406;28;20060;-71
2023/07/29 08:38:17;;;;;;;0.98;0.60;;;;;;;;;;5052861;28;20364;-71
2023/07/29 08:40:58;;;;;;;0.60;0.60;;;;;;;;;;5052910;28;20098;-71
2023/07/29 08:43:32;;;;;;;0.68;0.68;;;;;;;;;;5052739;28;20399;-71
2023/07/29 08:45:59;;;;;;;0.50;0.50;;;;;;;;;;5052325;28;20107;-71
2023/07/29 08:48:36;;;;;;;1.00;0.60;;;;;;;;;;5052648;28;20082;-71
2023/07/29 08:51:03;;;;;;;0.40;0.40;;;;;;;;;;5052769;28;20032;-71
2023/07/29 08:53:29;;;;;;;3.72;0.60;;;;;;;;;;5052947;28;20460;-72
2023/07/29 08:55:55;;;;;;;0.50;0.50;;;;;;;;;;5052836;28;20067;-72
2023/07/29 08:58:22;;;;;;;1.48;0.70;;;;;;;;;;5052718;28;20502;-72
2023/07/29 09:00:48;;;;;;;0.57;0.57;;;;;;;;;;5052547;28;20435;-73
2023/07/29 09:03:13;;;;;;;2.67;0.50;;;;;;;;;;5052507;28;20037;-72
2023/07/29 09:05:38;;;;;;;0.63;0.50;;;;;;;;;;5052593;28;20083;-72
2023/07/29 09:08:04;;;;;;;0.80;0.50;;;;;;;;;;5052914;28;20749;-72
2023/07/29 09:10:29;;;;;;;1.75;0.80;;;;;;;;;;5052491;28;20059;-72
2023/07/29 09:12:55;;;;;;;1.00;0.70;;;;;;;;;;5052614;28;20025;-72
2023/07/29 09:15:31;;;;;;;1.52;0.60;;;;;;;;;;5051245;28;20387;-72
2023/07/29 09:17:58;;;;;;;0.70;0.70;;;;;;;;;;5052967;28;20144;-72
2023/07/29 09:20:27;;;;;;;0.70;0.70;;;;;;;;;;5052353;28;20069;-72
2023/07/29 09:22:54;;;;;;;0.70;0.70;;;;;;;;;;5052332;28;20037;-71
2023/07/29 09:25:27;;;;;;;0.80;0.70;;;;;;;;;;5051163;28;20076;-72
2023/07/29 09:27:52;;;;;;;0.77;0.77;;;;;;;;;;5052891;28;20107;-72
2023/07/29 09:30:18;;;;;;;0.60;0.60;;;;;;;;;;5052301;28;20096;-72
2023/07/29 09:32:43;;;;;;;0.90;0.90;;;;;;;;;;5052295;28;20361;-72
2023/07/29 09:35:12;;;;;;;0.80;0.80;;;;;;;;;;5052935;28;20043;-71
2023/07/29 09:37:38;;;;;;;1.48;0.90;;;;;;;;;;5051254;28;20090;-71
2023/07/29 09:40:05;;;;;;;0.88;0.80;;;;;;;;;;5052248;28;20538;-72
2023/07/29 09:42:31;;;;;;;0.80;0.80;;;;;;;;;;5052241;28;20041;-72
2023/07/29 09:44:56;;;;;;;2.20;1.73;;;;;;;;;;5052204;28;20029;-73
2023/07/29 09:47:24;;;;;;;1.53;0.80;;;;;;;;;;5052183;28;20779;-71
2023/07/29 09:49:50;;;;;;;1.45;0.80;;;;;;;;;;5052177;28;20292;-72
2023/07/29 09:52:17;;;;;;;2.22;1.10;;;;;;;;;;5051009;28;20031;-72
2023/07/29 09:54:44;;;;;;;1.48;0.90;;;;;;;;;;5052162;28;20033;-72
2023/07/29 09:57:10;;;;;;;1.92;0.75;;;;;;;;;;5052924;28;20025;-72
2023/07/29 09:59:36;;;;;;;1.05;0.85;;;;;;;;;;5055706;28;20021;-72
2023/07/29 10:02:01;;;;;;;0.80;0.80;;;;;;;;;;5055608;28;20112;-72
2023/07/29 10:04:28;;;;;;;1.83;0.82;;;;;;;;;;5055725;28;20261;-73
2023/07/29 10:06:54;;;;;;;1.00;0.70;;;;;;;;;;5055652;28;20033;-70
2023/07/29 10:09:20;;;;;;;0.95;0.85;;;;;;;;;;5055613;28;20369;-71
2023/07/29 10:11:45;;;;;;;2.50;1.10;;;;;;;;;;5055530;28;20159;-72
2023/07/29 10:14:11;;;;;;;3.93;1.10;;;;;;;;;;5055773;28;20108;-70
2023/07/29 10:16:37;;;;;;;3.08;1.00;;;;;;;;;;5054095;28;20266;-72
2023/07/29 10:19:04;;;;;;;1.60;0.80;;;;;;;;;;5055345;28;20025;-71
2023/07/29 10:21:30;;;;;;;1.02;0.85;;;;;;;;;;5054010;28;20400;-71
2023/07/29 10:24:01;;;;;;;2.70;1.00;;;;;;;;;;5055760;28;20025;-72
2023/07/29 10:26:27;;;;;;;1.00;0.90;;;;;;;;;;5055315;28;20082;-70
2023/07/29 10:28:56;;;;;;;2.50;0.90;;;;;;;;;;5055214;28;20028;-70
2023/07/29 10:31:22;;;;;;;1.08;0.85;;;;;;;;;;5053737;28;20483;-72
2023/07/29 10:33:48;;;;;;;1.02;0.60;;;;;;;;;;5055347;28;20035;-72
2023/07/29 10:36:14;;;;;;;0.65;0.60;;;;;;;;;;5055307;28;20025;-72
2023/07/29 10:38:40;;;;;;;0.65;0.65;;;;;;;;;;5054969;28;20038;-72
2023/07/29 10:41:06;;;;;;;0.70;0.70;;;;;;;;;;5054899;28;20029;-72
2023/07/29 10:43:33;;;;;;;0.53;0.53;;;;;;;;;;5054913;28;20079;-72
2023/07/29 10:46:16;;;;;;;1.60;0.63;;;;;;;;;;5055088;28;20262;-72
2023/07/29 10:48:42;;;;;;;0.70;0.70;;;;;;;;;;5054901;28;20025;-72
2023/07/29 10:51:36;;;;;;;0.80;0.80;;;;;;;;;;5054647;28;20029;-72
2023/07/29 10:54:12;;;;;;;0.73;0.73;;;;;;;;;;5054914;28;20028;-72
2023/07/29 10:56:42;;;;;;;0.70;0.70;;;;;;;;;;5054679;28;20534;-71
2023/07/29 10:59:17;;;;;;;3.35;0.90;;;;;;;;;;5054524;28;20033;-71
2023/07/29 11:01:51;;;;;;;0.95;0.80;;;;;;;;;;5054438;28;20017;-72
2023/07/29 11:04:26;;;;;;;1.50;1.13;;;;;;;;;;5054548;28;20076;-71
2023/07/29 11:07:07;;;;;;;1.13;0.90;;;;;;;;;;5054827;28;20020;-72
2023/07/29 11:10:02;;;;;;;1.25;0.90;;;;;;;;;;5053924;28;20028;-70
2023/07/29 11:12:47;;;;;;;0.93;0.90;;;;;;;;;;5045901;28;20071;-71
2023/07/29 11:15:13;;;;;;;1.00;0.88;;;;;;;;;;5054301;28;20021;-71
2023/07/29 11:17:41;;;;;;;5.35;0.80;;;;;;;;;;5054306;28;20112;-71
2023/07/29 11:20:10;;;;;;;1.52;1.00;;;;;;;;;;5054047;28;20044;-71
2023/07/29 11:22:36;;;;;;;0.77;0.77;;;;;;;;;;5052866;28;20466;-71
2023/07/29 11:25:02;;;;;;;1.73;0.88;;;;;;;;;;5054394;28;20017;-70
2023/07/29 11:27:27;;;;;;;2.08;0.70;;;;;;;;;;5052821;28;20028;-71
2023/07/29 11:30:05;;;;;;;1.10;0.80;;;;;;;;;;5052763;28;20021;-71
2023/07/29 11:32:32;;;;;;;0.70;0.68;;;;;;;;;;5053939;28;20737;-72
2023/07/29 11:35:01;;;;;;;4.00;0.70;;;;;;;;;;5052705;28;20025;-71
2023/07/29 11:37:26;;;;;;;1.00;0.75;;;;;;;;;;5053856;28;20048;-71
2023/07/29 11:39:52;;;;;;;1.70;0.90;;;;;;;;;;5053807;28;20480;-72
2023/07/29 11:42:17;;;;;;;2.90;0.70;;;;;;;;;;5053712;28;20309;-72
2023/07/29 11:44:42;;;;;;;0.93;0.70;;;;;;;;;;5053738;28;20254;-72
2023/07/29 11:47:12;;;;;;;2.95;0.80;;;;;;;;;;5053649;28;20545;-71
2023/07/29 11:49:41;;;;;;;0.82;0.73;;;;;;;;;;5054046;28;20024;-72
2023/07/29 11:52:10;;;;;;;1.27;0.63;;;;;;;;;;5053888;28;20031;-71
2023/07/29 11:54:39;;;;;;;0.98;0.80;;;;;;;;;;5053744;28;20452;-71
2023/07/29 11:57:11;;;;;;;0.93;0.65;;;;;;;;;;5053526;28;20021;-71
2023/07/29 11:59:37;;;;;;;1.58;0.73;;;;;;;;;;5053411;28;20021;-72
2023/07/29 12:02:10;;;;;;;1.75;0.88;;;;;;;;;;5053537;28;20472;-70
2023/07/29 12:04:36;;;;;;;0.85;0.82;;;;;;;;;;5053487;28;20067;-73
2023/07/29 12:07:02;;;;;;;1.75;1.00;;;;;;;;;;5053327;28;20035;-70
2023/07/29 12:09:28;;;;;;;0.85;0.82;;;;;;;;;;5053217;28;20025;-71
2023/07/29 12:11:54;;;;;;;2.75;0.73;;;;;;;;;;5053631;28;20025;-72
2023/07/29 12:14:19;;;;;;;0.80;0.80;;;;;;;;;;5053573;28;20027;-71
2023/07/29 12:16:48;;;;;;;1.80;0.80;;;;;;;;;;5053364;28;20083;-71
2023/07/29 12:19:14;;;;;;;1.27;0.90;;;;;;;;;;5052671;28;20037;-70
2023/07/29 12:21:41;;;;;;;2.28;0.95;;;;;;;;;;5052743;28;20024;-71
2023/07/29 12:24:07;;;;;;;2.22;0.80;;;;;;;;;;5053124;28;20476;-71
2023/07/29 12:26:32;;;;;;;0.85;0.80;;;;;;;;;;5053334;28;20032;-71
2023/07/29 12:28:57;;;;;;;2.97;1.00;;;;;;;;;;5053020;28;20028;-72
2023/07/29 12:31:31;;;;;;;2.58;0.82;;;;;;;;;;5052843;28;20032;-73
2023/07/29 12:33:57;;;;;;;1.40;0.80;;;;;;;;;;5053303;28;20024;-70
2023/07/29 12:36:22;;;;;;;2.22;0.80;;;;;;;;;;5053258;28;20043;-74
2023/07/29 12:38:49;;;;;;;1.10;0.80;;;;;;;;;;5052871;28;20116;-71
2023/07/29 12:41:14;;;;;;;5.28;0.98;;;;;;;;;;5052813;28;20258;-71
2023/07/29 12:43:40;;;;;;;5.93;0.90;;;;;;;;;;5052726;28;20103;-71
2023/07/29 12:46:05;;;;;;;1.35;0.93;;;;;;;;;;5052765;28;20288;-72
2023/07/29 12:48:30;;;;;;;1.27;0.80;;;;;;;;;;5053032;28;20107;-72
2023/07/29 12:50:55;;;;;;;1.10;0.77;;;;;;;;;;5052622;28;20254;-73
2023/07/29 12:53:21;;;;;;;0.63;0.53;;;;;;;;;;5052636;28;20328;-72
2023/07/29 12:55:46;;;;;;;1.27;0.70;;;;;;;;;;5052839;28;20270;-72
2023/07/29 12:58:11;;;;;;;2.30;0.70;;;;;;;;;;5052714;28;20017;-72
2023/07/29 13:00:36;;;;;;;2.80;0.80;;;;;;;;;;5052552;28;20297;-71
2023/07/29 13:03:05;;;;;;;0.73;0.70;;;;;;;;;;5052647;28;20777;-72
2023/07/29 13:05:30;;;;;;;0.88;0.77;;;;;;;;;;5051956;28;20719;-71
2023/07/29 13:07:55;;;;;;;0.80;0.80;;;;;;;;;;5052682;28;20095;-71
2023/07/29 13:10:21;;;;;;;0.90;0.63;;;;;;;;;;5052516;28;20262;-73
2023/07/29 13:12:46;;;;;;;0.70;0.70;;;;;;;;;;5052552;28;20254;-71
2023/07/29 13:15:11;;;;;;;0.60;0.60;;;;;;;;;;5052830;28;20087;-70
2023/07/29 13:17:37;;;;;;;0.67;0.67;;;;;;;;;;5052588;28;20486;-71
2023/07/29 13:20:03;;;;;;;2.60;1.42;;;;;;;;;;5052472;28;20621;-72
2023/07/29 13:22:28;;;;;;;1.25;0.85;;;;;;;;;;5051468;28;20033;-71
2023/07/29 13:24:54;;;;;;;3.90;0.93;;;;;;;;;;5052456;28;20063;-73
2023/07/29 13:27:19;;;;;;;0.85;0.70;;;;;;;;;;5052689;28;20771;-70
2023/07/29 13:29:44;;;;;;;0.73;0.70;;;;;;;;;;5051119;28;20115;-73
2023/07/29 13:32:09;;;;;;;0.85;0.75;;;;;;;;;;5054894;28;20261;-72
2023/07/29 13:34:35;;;;;;;2.45;0.70;;;;;;;;;;5056260;28;20025;-70
2023/07/29 13:37:00;;;;;;;0.65;0.65;;;;;;;;;;5056195;28;20108;-71
2023/07/29 13:39:26;;;;;;;0.80;0.80;;;;;;;;;;5056036;28;20029;-71
2023/07/29 13:41:51;;;;;;;1.55;0.80;;;;;;;;;;5055942;28;20025;-73
2023/07/29 13:44:16;;;;;;;0.70;0.70;;;;;;;;;;5056009;28;20436;-72
2023/07/29 13:46:41;;;;;;;5.37;0.70;;;;;;;;;;5054652;28;20265;-72
2023/07/29 13:49:06;;;;;;;0.70;0.70;;;;;;;;;;5056043;28;20032;-72
2023/07/29 13:51:32;;;;;;;0.87;0.83;;;;;;;;;;5056083;28;20021;-72
2023/07/29 13:53:57;;;;;;;1.07;0.70;;;;;;;;;;5054825;28;20311;-71
2023/07/29 13:56:22;;;;;;;3.65;0.77;;;;;;;;;;5055830;28;20258;-71
2023/07/29 13:58:48;;;;;;;0.60;0.60;;;;;;;;;;5054503;28;20170;-71
2023/07/29 14:01:13;;;;;;;0.95;0.80;;;;;;;;;;5055627;28;20487;-72
2023/07/29 14:03:38;;;;;;;0.70;0.70;;;;;;;;;;5055563;28;20472;-73
2023/07/29 14:06:04;;;;;;;0.80;0.80;;;;;;;;;;5054388;28;20021;-73
2023/07/29 14:08:29;;;;;;;0.70;0.65;;;;;;;;;;5055555;28;20265;-72
2023/07/29 14:10:54;;;;;;;1.20;0.70;;;;;;;;;;5055678;28;20029;-70
2023/07/29 14:13:19;;;;;;;1.40;0.77;;;;;;;;;;5055518;28;20431;-72
2023/07/29 14:15:45;;;;;;;0.70;0.70;;;;;;;;;;5054121;28;20438;-72
2023/07/29 14:18:10;;;;;;;3.00;0.70;;;;;;;;;;5055369;28;20052;-72
2023/07/29 14:20:35;;;;;;;0.70;0.70;;;;;;;;;;5055205;28;20273;-71
2023/07/29 14:23:00;;;;;;;2.00;0.70;;;;;;;;;;5055221;28;20025;-72
2023/07/29 14:25:27;;;;;;;1.73;0.70;;;;;;;;;;5055256;28;20040;-73
2023/07/29 14:27:52;;;;;;;2.15;0.60;;;;;;;;;;5053911;28;20277;-72
2023/07/29 14:30:17;;;;;;;4.00;0.97;;;;;;;;;;5055120;28;20505;-72
2023/07/29 14:32:43;;;;;;;0.70;0.60;;;;;;;;;;5053849;28;20277;-72
2023/07/29 14:35:08;;;;;;;0.70;0.70;;;;;;;;;;5055379;28;20025;-72
2023/07/29 14:37:34;;;;;;;0.85;0.65;;;;;;;;;;5055297;28;20623;-72
2023/07/29 14:40:00;;;;;;;0.60;0.60;;;;;;;;;;5053706;28;20025;-72